• Join FlightAware (Why Join?)
  • Login
  • US Flag 
09:59PM EDT


 

Airport Tracker/Info


-or-


 

Live Flight TrackerFlight Track Log ✈ SWA1377 ✈ 14-Apr-2013 ✈ KBUF - KBWI

Flight Track Log - Related Links

Times and Time Zones

All times are in EDT time to prevent confusion due to time zone crossing. See the SWA1377 flight status page for this flight to view local times or setup timezone preferences in your user account.

Time Position Orientation Groundspeed Altitude Reporting Facility
EDT Latitude Longitude Course Direction KTS MPH feet Rate Location/Type
12:20PM 42.9333 -78.7333 216° Southwest 144 166 1,600  Level Buffalo TRACON
12:21PM 42.9000 -78.7667 216° Southwest 184 212 4,200 3,540 Climbing Buffalo TRACON
12:22PM 42.8294 -78.7628 178° South 256 295 8,100 3,600 Climbing Cleveland Center
12:23PM 42.7478 -78.7425 170° South 277 319 11,500 3,600 Climbing Cleveland Center
12:24PM 42.6494 -78.7228 172° South 316 364 15,300 3,660 Climbing Cleveland Center
12:25PM 42.5428 -78.7036 172° South 356 410 18,900 3,660 Climbing Cleveland Center
12:26PM 42.4383 -78.6842 172° South 381 438 22,700 2,040 Climbing Cleveland Center
12:27PM 42.3317 -78.6564 169° South 387 445 23,000 120 Climbing Cleveland Center
12:28PM 42.2344 -78.5781 149° Southeast 392 451 23,000  Level Cleveland Center
12:29PM 42.1369 -78.4942 147° Southeast 404 465 23,000  Level Cleveland Center
12:30PM 42.0417 -78.4108 147° Southeast 410 472 23,000  Level Cleveland Center
12:31PM 41.9506 -78.3328 147° Southeast 410 472 23,000  Level Cleveland Center
12:32PM 41.8531 -78.2525 148° Southeast 410 472 23,000  Level Cleveland Center
12:34PM 41.6775 -78.0172 135° Southeast 413 475 23,000  Level New York Center
12:35PM 41.5942 -77.9136 137° Southeast 418 481 23,000  Level New York Center
12:36PM 41.5108 -77.8053 136° Southeast 418 481 23,000  Level New York Center
12:37PM 41.4297 -77.6969 135° Southeast 418 481 23,000  Level New York Center
12:38PM 41.3464 -77.5917 136° Southeast 423 487 23,000  Level New York Center
12:39PM 41.2628 -77.4839 136° Southeast 423 487 23,000 -120 Level New York Center
12:40PM 41.1969 -77.3972 135° Southeast 423 487 22,800 -660 Descending New York Center
12:41PM 41.0936 -77.2689 137° Southeast 428 493 21,700 -1,080 Descending New York Center
12:42PM 41.0058 -77.1586 137° Southeast 428 493 20,700 -1,440 Descending New York Center
12:43PM 40.9219 -77.0519 136° Southeast 428 493 18,900 -2,100 Descending New York Center
12:44PM 40.8378 -76.9481 137° Southeast 428 493 16,500 -1,980 Descending New York Center
12:45PM 40.7533 -76.8444 137° Southeast 422 486 15,000 -780 Descending New York Center
12:46PM 40.6711 -76.7442 137° Southeast 417 480 15,000  Level New York Center
12:47PM 40.5886 -76.6442 137° Southeast 412 474 15,000  Level New York Center
12:48PM 40.5128 -76.5283 131° Southeast 412 474 15,000  Level New York Center
12:49PM 40.4442 -76.4408 136° Southeast 405 466 15,000 -120 Level New York Center
12:50PM 40.3439 -76.4436 181° South 348 400 14,800 -720 Descending New York Center
12:51PM 40.2367 -76.4619 187° South 348 400 13,600 -1,140 Descending New York Center
12:52PM 40.1419 -76.4814 189° South 353 406 12,600 -540 Descending New York Center
12:54PM 39.9500 -76.5167 188° South 296 341 12,000 -240 Descending Potomac TRACON
12:55PM 39.8667 -76.5333 189° South 296 341 12,000 -600 Level Potomac TRACON
12:56PM 39.7833 -76.5167 171° South 321 369 10,800 -1,320 Descending Potomac TRACON
12:57PM 39.7000 -76.5000 171° South 300 345 9,400 -1,380 Descending Potomac TRACON
12:58PM 39.6167 -76.5000 180° South 293 337 8,100 -900 Descending Potomac TRACON
12:59PM 39.5500 -76.4833 169° South 291 335 7,700 -1,200 Descending Potomac TRACON
01:00PM 39.4667 -76.4833 180° South 297 342 5,900 -1,500 Descending Potomac TRACON
01:01PM 39.3833 -76.4833 180° South 277 319 4,700 -960 Descending Potomac TRACON
01:02PM 39.3167 -76.4833 180° South 267 307 4,000 -780 Descending Potomac TRACON
01:03PM 39.2500 -76.5000 191° South 258 297 3,300 -1,020 Descending Potomac TRACON
01:04PM 39.1667 -76.5000 180° South 259 298 2,000 -660 Descending Potomac TRACON
01:05PM 39.1167 -76.5167 195° South 198 228 2,000 -240 Level Potomac TRACON
01:06PM 39.0667 -76.5500 207° Southwest 176 203 1,600 -300 Descending Potomac TRACON
01:07PM 39.0833 -76.5833 303° West 157 181 1,500 -60 Descending Potomac TRACON
01:08PM 39.1167 -76.6167 322° Northwest 129 148 1,500 -420 Level Potomac TRACON
01:09PM 39.1333 -76.6333 322° Northwest 117 135 800 -720 Descending Potomac TRACON
01:11PM 39.1667 -76.6667 270° West  Level FlightAware Approximate
01:18PM 39.1754 -76.6683 270° West  Level Estimated